sensor_id;sensor_type;location;lat;lon;timestamp;pressure;altitude;pressure_sealevel;temperature;humidity
71601;BME280;59446;52.192;4.628;2022-10-10T00:00:29;101502.03;;;18.08;57.33
71601;BME280;59446;52.192;4.628;2022-10-10T00:02:54;101490.72;;;18.06;57.44
71601;BME280;59446;52.192;4.628;2022-10-10T00:05:19;101492.41;;;18.07;57.59
71601;BME280;59446;52.192;4.628;2022-10-10T00:07:45;101493.34;;;18.06;57.55
71601;BME280;59446;52.192;4.628;2022-10-10T00:10:10;101484.59;;;18.06;57.53
71601;BME280;59446;52.192;4.628;2022-10-10T00:12:35;101493.41;;;18.05;57.65
71601;BME280;59446;52.192;4.628;2022-10-10T00:15:01;101486.44;;;18.04;57.60
71601;BME280;59446;52.192;4.628;2022-10-10T00:17:26;101478.63;;;18.02;57.45
71601;BME280;59446;52.192;4.628;2022-10-10T00:19:52;101478.63;;;18.02;57.53
71601;BME280;59446;52.192;4.628;2022-10-10T00:22:17;101476.81;;;18.03;57.57
71601;BME280;59446;52.192;4.628;2022-10-10T00:24:42;101471.63;;;18.01;57.45
71601;BME280;59446;52.192;4.628;2022-10-10T00:27:11;101468.22;;;17.99;57.53
71601;BME280;59446;52.192;4.628;2022-10-10T00:29:36;101469.94;;;18.00;57.57
71601;BME280;59446;52.192;4.628;2022-10-10T00:32:02;101463.81;;;18.00;57.61
71601;BME280;59446;52.192;4.628;2022-10-10T00:34:27;101469.16;;;17.98;57.62
71601;BME280;59446;52.192;4.628;2022-10-10T00:36:52;101459.53;;;17.97;57.43
71601;BME280;59446;52.192;4.628;2022-10-10T00:39:18;101463.97;;;17.97;57.65
71601;BME280;59446;52.192;4.628;2022-10-10T00:41:43;101463.97;;;17.97;58.22
71601;BME280;59446;52.192;4.628;2022-10-10T00:44:11;101460.56;;;17.95;57.63
71601;BME280;59446;52.192;4.628;2022-10-10T00:46:38;101459.69;;;17.94;57.57
71601;BME280;59446;52.192;4.628;2022-10-10T00:49:15;101457.06;;;17.94;57.60
71601;BME280;59446;52.192;4.628;2022-10-10T00:51:44;101454.50;;;17.93;57.64
71601;BME280;59446;52.192;4.628;2022-10-10T00:54:15;101451.03;;;17.92;58.08
71601;BME280;59446;52.192;4.628;2022-10-10T00:57:03;101454.56;;;17.91;57.68
71601;BME280;59446;52.192;4.628;2022-10-10T00:59:31;101446.66;;;17.91;57.66
71601;BME280;59446;52.192;4.628;2022-10-10T01:01:58;101443.16;;;17.91;57.72
71601;BME280;59446;52.192;4.628;2022-10-10T01:04:43;101440.59;;;17.89;57.55
71601;BME280;59446;52.192;4.628;2022-10-10T01:09:40;101445.88;;;17.89;57.66
71601;BME280;59446;52.192;4.628;2022-10-10T01:15:11;101442.47;;;17.87;57.67
71601;BME280;59446;52.192;4.628;2022-10-10T01:27:06;101439.13;;;17.83;57.84
71601;BME280;59446;52.192;4.628;2022-10-10T01:29:44;101434.78;;;17.82;57.93
71601;BME280;59446;52.192;4.628;2022-10-10T01:38:01;101423.47;;;17.80;57.84
71601;BME280;59446;52.192;4.628;2022-10-10T01:40:35;101416.44;;;17.81;57.87
71601;BME280;59446;52.192;4.628;2022-10-10T01:43:06;101415.66;;;17.79;57.96
71601;BME280;59446;52.192;4.628;2022-10-10T01:45:32;101413.09;;;17.77;57.58
71601;BME280;59446;52.192;4.628;2022-10-10T01:48:01;101406.06;;;17.78;57.78
71601;BME280;59446;52.192;4.628;2022-10-10T01:50:27;101400.84;;;17.76;57.98
71601;BME280;59446;52.192;4.628;2022-10-10T01:59:15;101405.34;;;17.74;57.87
71601;BME280;59446;52.192;4.628;2022-10-10T02:02:10;101390.47;;;17.73;58.18
71601;BME280;59446;52.192;4.628;2022-10-10T02:04:54;101389.63;;;17.73;58.00
71601;BME280;59446;52.192;4.628;2022-10-10T02:07:36;101383.50;;;17.72;57.97
71601;BME280;59446;52.192;4.628;2022-10-10T02:10:06;101394.03;;;17.72;57.75
71601;BME280;59446;52.192;4.628;2022-10-10T02:12:34;101390.56;;;17.72;58.10
71601;BME280;59446;52.192;4.628;2022-10-10T02:15:07;101380.09;;;17.70;57.95
71601;BME280;59446;52.192;4.628;2022-10-10T02:17:36;101386.22;;;17.71;57.86
71601;BME280;59446;52.192;4.628;2022-10-10T02:20:05;101383.66;;;17.69;57.90
71601;BME280;59446;52.192;4.628;2022-10-10T02:22:32;101381.03;;;17.69;58.14
71601;BME280;59446;52.192;4.628;2022-10-10T02:24:59;101378.44;;;17.68;58.25
71601;BME280;59446;52.192;4.628;2022-10-10T02:27:38;101374.94;;;17.67;58.04
71601;BME280;59446;52.192;4.628;2022-10-10T02:30:07;101376.72;;;17.67;57.67
71601;BME280;59446;52.192;4.628;2022-10-10T02:32:43;101380.31;;;17.66;57.92
71601;BME280;59446;52.192;4.628;2022-10-10T02:35:15;101371.53;;;17.65;58.03
71601;BME280;59446;52.192;4.628;2022-10-10T02:37:42;101369.84;;;17.64;57.83
71601;BME280;59446;52.192;4.628;2022-10-10T02:40:11;101368.91;;;17.65;58.02
71601;BME280;59446;52.192;4.628;2022-10-10T02:42:39;101362.88;;;17.63;58.13
71601;BME280;59446;52.192;4.628;2022-10-10T02:45:05;101356.75;;;17.63;58.16
71601;BME280;59446;52.192;4.628;2022-10-10T02:47:30;101353.28;;;17.62;58.26
71601;BME280;59446;52.192;4.628;2022-10-10T02:49:56;101357.69;;;17.62;57.42
71601;BME280;59446;52.192;4.628;2022-10-10T02:52:21;101354.19;;;17.61;58.12
71601;BME280;59446;52.192;4.628;2022-10-10T02:54:47;101352.50;;;17.60;58.22
71601;BME280;59446;52.192;4.628;2022-10-10T02:57:12;101350.72;;;17.61;58.23
71601;BME280;59446;52.192;4.628;2022-10-10T02:59:37;101359.53;;;17.60;58.04
71601;BME280;59446;52.192;4.628;2022-10-10T03:02:03;101354.28;;;17.60;58.12
71601;BME280;59446;52.192;4.628;2022-10-10T03:04:28;101354.34;;;17.58;58.02
71601;BME280;59446;52.192;4.628;2022-10-10T03:06:54;101350.88;;;17.57;58.08
71601;BME280;59446;52.192;4.628;2022-10-10T03:09:20;101342.97;;;17.57;58.26
71601;BME280;59446;52.192;4.628;2022-10-10T03:11:45;101335.16;;;17.56;58.32
71601;BME280;59446;52.192;4.628;2022-10-10T03:14:11;101337.78;;;17.56;58.16
71601;BME280;59446;52.192;4.628;2022-10-10T03:16:36;101339.56;;;17.55;58.16
71601;BME280;59446;52.192;4.628;2022-10-10T03:19:01;101334.38;;;17.54;58.22
71601;BME280;59446;52.192;4.628;2022-10-10T03:21:27;101341.34;;;17.55;58.35
71601;BME280;59446;52.192;4.628;2022-10-10T03:23:53;101342.28;;;17.54;58.10
71601;BME280;59446;52.192;4.628;2022-10-10T03:26:18;101346.72;;;17.52;58.20
71601;BME280;59446;52.192;4.628;2022-10-10T03:28:43;101343.16;;;17.53;57.90
71601;BME280;59446;52.192;4.628;2022-10-10T03:31:09;101343.25;;;17.51;58.30
71601;BME280;59446;52.192;4.628;2022-10-10T03:33:34;101344.19;;;17.50;58.15
71601;BME280;59446;52.192;4.628;2022-10-10T03:36:00;101338.91;;;17.50;58.02
71601;BME280;59446;52.192;4.628;2022-10-10T03:38:25;101342.41;;;17.51;58.16
71601;BME280;59446;52.192;4.628;2022-10-10T03:40:51;101337.22;;;17.49;58.06
71601;BME280;59446;52.192;4.628;2022-10-10T03:43:16;101327.59;;;17.48;58.24
71601;BME280;59446;52.192;4.628;2022-10-10T03:45:43;101335.50;;;17.48;58.34
71601;BME280;59446;52.192;4.628;2022-10-10T03:48:09;101336.44;;;17.47;58.03
71601;BME280;59446;52.192;4.628;2022-10-10T03:50:35;101342.53;;;17.48;58.32
71601;BME280;59446;52.192;4.628;2022-10-10T03:53:00;101338.22;;;17.47;58.17
71601;BME280;59446;52.192;4.628;2022-10-10T03:55:26;101341.75;;;17.46;58.35
71601;BME280;59446;52.192;4.628;2022-10-10T03:57:51;101340.03;;;17.45;57.95
71601;BME280;59446;52.192;4.628;2022-10-10T04:00:18;101333.91;;;17.44;58.16
71601;BME280;59446;52.192;4.628;2022-10-10T04:02:44;101336.56;;;17.44;58.23
71601;BME280;59446;52.192;4.628;2022-10-10T04:05:09;101337.41;;;17.45;58.35
71601;BME280;59446;52.192;4.628;2022-10-10T04:07:35;101337.47;;;17.43;58.36
71601;BME280;59446;52.192;4.628;2022-10-10T04:10:00;101338.41;;;17.42;58.37
71601;BME280;59446;52.192;4.628;2022-10-10T04:12:26;101329.66;;;17.42;58.01
71601;BME280;59446;52.192;4.628;2022-10-10T04:14:51;101334.94;;;17.42;58.24
71601;BME280;59446;52.192;4.628;2022-10-10T04:17:17;101330.59;;;17.41;58.40
71601;BME280;59446;52.192;4.628;2022-10-10T04:19:42;101327.09;;;17.40;58.02
71601;BME280;59446;52.192;4.628;2022-10-10T04:22:07;101317.50;;;17.39;58.27
71601;BME280;59446;52.192;4.628;2022-10-10T04:24:33;101315.72;;;17.40;57.95
71601;BME280;59446;52.192;4.628;2022-10-10T04:26:58;101314.94;;;17.38;57.44
71601;BME280;59446;52.192;4.628;2022-10-10T04:29:24;101314.09;;;17.37;57.48
71601;BME280;59446;52.192;4.628;2022-10-10T04:31:49;101322.00;;;17.37;57.34
71601;BME280;59446;52.192;4.628;2022-10-10T04:34:15;101322.06;;;17.36;56.90
71601;BME280;59446;52.192;4.628;2022-10-10T04:36:41;101325.63;;;17.35;56.61
71601;BME280;59446;52.192;4.628;2022-10-10T04:39:06;101326.56;;;17.34;56.83
71601;BME280;59446;52.192;4.628;2022-10-10T04:41:32;101325.72;;;17.33;56.33
71601;BME280;59446;52.192;4.628;2022-10-10T04:43:57;101326.63;;;17.32;56.55
71601;BME280;59446;52.192;4.628;2022-10-10T04:46:23;101328.50;;;17.30;56.59
71601;BME280;59446;52.192;4.628;2022-10-10T04:48:48;101325.88;;;17.30;56.88
71601;BME280;59446;52.192;4.628;2022-10-10T04:51:14;101326.78;;;17.29;56.91
71601;BME280;59446;52.192;4.628;2022-10-10T04:53:39;101330.28;;;17.30;56.45
71601;BME280;59446;52.192;4.628;2022-10-10T04:56:13;101328.56;;;17.28;56.68
71601;BME280;59446;52.192;4.628;2022-10-10T04:58:39;101325.09;;;17.28;56.76
71601;BME280;59446;52.192;4.628;2022-10-10T05:01:04;101333.84;;;17.28;56.58
71601;BME280;59446;52.192;4.628;2022-10-10T05:03:30;101328.56;;;17.28;57.05
71601;BME280;59446;52.192;4.628;2022-10-10T05:05:56;101330.34;;;17.28;56.96
71601;BME280;59446;52.192;4.628;2022-10-10T05:08:22;101333.00;;;17.28;57.31
71601;BME280;59446;52.192;4.628;2022-10-10T05:10:47;101328.66;;;17.27;57.44
71601;BME280;59446;52.192;4.628;2022-10-10T05:13:15;101329.56;;;17.26;57.57
71601;BME280;59446;52.192;4.628;2022-10-10T05:15:41;101333.06;;;17.26;57.47
71601;BME280;59446;52.192;4.628;2022-10-10T05:18:07;101338.31;;;17.26;57.34
71601;BME280;59446;52.192;4.628;2022-10-10T05:20:34;101340.97;;;17.26;57.23
71601;BME280;59446;52.192;4.628;2022-10-10T05:23:00;101341.88;;;17.25;57.42
71601;BME280;59446;52.192;4.628;2022-10-10T05:25:26;101338.41;;;17.25;57.33
71601;BME280;59446;52.192;4.628;2022-10-10T05:27:53;101341.97;;;17.24;57.49
71601;BME280;59446;52.192;4.628;2022-10-10T05:30:18;101342.81;;;17.24;57.62
71601;BME280;59446;52.192;4.628;2022-10-10T05:32:44;101347.22;;;17.24;57.74
71601;BME280;59446;52.192;4.628;2022-10-10T05:35:09;101344.59;;;17.24;57.53
71601;BME280;59446;52.192;4.628;2022-10-10T05:37:35;101351.59;;;17.23;57.93
71601;BME280;59446;52.192;4.628;2022-10-10T05:40:00;101344.63;;;17.22;57.45
71601;BME280;59446;52.192;4.628;2022-10-10T05:42:26;101338.53;;;17.22;57.68
71601;BME280;59446;52.192;4.628;2022-10-10T05:44:51;101348.13;;;17.23;57.75
71601;BME280;59446;52.192;4.628;2022-10-10T05:47:16;101345.56;;;17.21;57.96
71601;BME280;59446;52.192;4.628;2022-10-10T05:49:42;101346.50;;;17.20;57.89
71601;BME280;59446;52.192;4.628;2022-10-10T05:52:08;101343.00;;;17.20;57.94
71601;BME280;59446;52.192;4.628;2022-10-10T05:54:33;101344.78;;;17.19;57.67
71601;BME280;59446;52.192;4.628;2022-10-10T05:56:58;101349.19;;;17.19;58.07
71601;BME280;59446;52.192;4.628;2022-10-10T05:59:24;101342.16;;;17.19;57.71
71601;BME280;59446;52.192;4.628;2022-10-10T06:01:49;101340.47;;;17.18;57.53
71601;BME280;59446;52.192;4.628;2022-10-10T06:04:15;101342.22;;;17.18;57.68
71601;BME280;59446;52.192;4.628;2022-10-10T06:06:41;101344.00;;;17.17;57.64
71601;BME280;59446;52.192;4.628;2022-10-10T06:09:09;101340.53;;;17.17;57.64
71601;BME280;59446;52.192;4.628;2022-10-10T06:11:35;101347.50;;;17.18;57.95
71601;BME280;59446;52.192;4.628;2022-10-10T06:14:00;101339.69;;;17.16;57.97
71601;BME280;59446;52.192;4.628;2022-10-10T06:16:26;101347.56;;;17.16;57.60
71601;BME280;59446;52.192;4.628;2022-10-10T06:18:52;101351.97;;;17.16;58.18
71601;BME280;59446;52.192;4.628;2022-10-10T06:21:18;101348.50;;;17.15;57.77
71601;BME280;59446;52.192;4.628;2022-10-10T06:23:44;101344.09;;;17.16;57.30
71601;BME280;59446;52.192;4.628;2022-10-10T06:26:10;101352.06;;;17.14;57.43
71601;BME280;59446;52.192;4.628;2022-10-10T06:28:36;101356.47;;;17.14;57.20
71601;BME280;59446;52.192;4.628;2022-10-10T06:31:04;101361.72;;;17.14;57.02
71601;BME280;59446;52.192;4.628;2022-10-10T06:33:30;101360.88;;;17.13;56.74
71601;BME280;59446;52.192;4.628;2022-10-10T06:35:55;101365.28;;;17.13;56.71
71601;BME280;59446;52.192;4.628;2022-10-10T06:38:21;101361.81;;;17.12;56.69
71601;BME280;59446;52.192;4.628;2022-10-10T06:40:47;101363.59;;;17.12;56.56
71601;BME280;59446;52.192;4.628;2022-10-10T06:43:13;101369.69;;;17.12;56.60
71601;BME280;59446;52.192;4.628;2022-10-10T06:45:42;101369.69;;;17.12;56.57
71601;BME280;59446;52.192;4.628;2022-10-10T06:48:12;101362.75;;;17.11;56.42
71601;BME280;59446;52.192;4.628;2022-10-10T06:50:37;101359.19;;;17.12;56.75
71601;BME280;59446;52.192;4.628;2022-10-10T06:53:03;101364.44;;;17.12;56.71
71601;BME280;59446;52.192;4.628;2022-10-10T06:55:28;101367.94;;;17.13;56.66
71601;BME280;59446;52.192;4.628;2022-10-10T06:57:54;101370.41;;;17.16;56.32
71601;BME280;59446;52.192;4.628;2022-10-10T07:00:20;101364.06;;;17.20;56.70
71601;BME280;59446;52.192;4.628;2022-10-10T07:02:45;101367.28;;;17.26;56.63
71601;BME280;59446;52.192;4.628;2022-10-10T07:05:12;101375.72;;;17.33;56.86
71601;BME280;59446;52.192;4.628;2022-10-10T07:07:40;101374.81;;;17.34;57.03
71601;BME280;59446;52.192;4.628;2022-10-10T07:10:06;101367.69;;;17.36;56.86
71601;BME280;59446;52.192;4.628;2022-10-10T07:12:32;101377.97;;;17.41;56.78
71601;BME280;59446;52.192;4.628;2022-10-10T07:14:57;101385.47;;;17.50;56.68
71601;BME280;59446;52.192;4.628;2022-10-10T07:17:23;101380.69;;;17.58;57.30
71601;BME280;59446;52.192;4.628;2022-10-10T07:19:48;101384.78;;;17.64;56.76
71601;BME280;59446;52.192;4.628;2022-10-10T07:22:14;101387.19;;;17.68;56.77
71601;BME280;59446;52.192;4.628;2022-10-10T07:24:39;101385.28;;;17.72;56.53
71601;BME280;59446;52.192;4.628;2022-10-10T07:27:04;101390.41;;;17.75;56.37
71601;BME280;59446;52.192;4.628;2022-10-10T07:29:30;101385.66;;;17.81;56.42
71601;BME280;59446;52.192;4.628;2022-10-10T07:31:56;101389.78;;;17.87;56.34
71601;BME280;59446;52.192;4.628;2022-10-10T07:34:21;101387.06;;;17.88;56.22
71601;BME280;59446;52.192;4.628;2022-10-10T07:36:47;101389.56;;;17.92;56.37
71601;BME280;59446;52.192;4.628;2022-10-10T07:39:21;101387.69;;;17.94;56.05
71601;BME280;59446;52.192;4.628;2022-10-10T07:41:48;101390.19;;;17.97;56.20
71601;BME280;59446;52.192;4.628;2022-10-10T07:44:14;101392.72;;;17.98;56.31
71601;BME280;59446;52.192;4.628;2022-10-10T07:46:39;101390.94;;;17.99;56.29
71601;BME280;59446;52.192;4.628;2022-10-10T07:49:04;101394.34;;;18.01;56.28
71601;BME280;59446;52.192;4.628;2022-10-10T07:51:30;101390.72;;;18.03;56.03
71601;BME280;59446;52.192;4.628;2022-10-10T07:53:55;101393.28;;;18.05;55.99
71601;BME280;59446;52.192;4.628;2022-10-10T07:56:20;101390.56;;;18.06;56.16
71601;BME280;59446;52.192;4.628;2022-10-10T07:58:46;101394.13;;;18.05;56.10
71601;BME280;59446;52.192;4.628;2022-10-10T08:01:12;101412.56;;;18.05;56.14
71601;BME280;59446;52.192;4.628;2022-10-10T08:03:38;101410.78;;;18.06;56.34
71601;BME280;59446;52.192;4.628;2022-10-10T08:06:05;101413.50;;;18.04;56.17
71601;BME280;59446;52.192;4.628;2022-10-10T08:08:31;101417.69;;;18.08;56.34
71601;BME280;59446;52.192;4.628;2022-10-10T08:10:56;101413.25;;;18.09;56.59
71601;BME280;59446;52.192;4.628;2022-10-10T08:13:22;101417.22;;;18.00;56.67
71601;BME280;59446;52.192;4.628;2022-10-10T08:15:52;101420.09;;;17.96;56.63
71601;BME280;59446;52.192;4.628;2022-10-10T08:18:18;101423.88;;;18.07;56.31
71601;BME280;59446;52.192;4.628;2022-10-10T08:20:44;101430.78;;;18.27;55.84
71601;BME280;59446;52.192;4.628;2022-10-10T08:23:09;101435.56;;;18.36;55.75
71601;BME280;59446;52.192;4.628;2022-10-10T08:25:35;101430.97;;;18.41;55.68
71601;BME280;59446;52.192;4.628;2022-10-10T08:28:00;101432.50;;;18.28;55.82
71601;BME280;59446;52.192;4.628;2022-10-10T08:30:26;101437.47;;;18.17;56.11
71601;BME280;59446;52.192;4.628;2022-10-10T08:32:51;101437.56;;;18.15;56.46
71601;BME280;59446;52.192;4.628;2022-10-10T08:35:17;101443.88;;;18.11;56.46
71601;BME280;59446;52.192;4.628;2022-10-10T08:37:42;101441.31;;;18.10;56.50
71601;BME280;59446;52.192;4.628;2022-10-10T08:40:12;101438.78;;;18.08;56.77
71601;BME280;59446;52.192;4.628;2022-10-10T08:42:44;101430.09;;;18.06;56.94
71601;BME280;59446;52.192;4.628;2022-10-10T08:45:18;101432.66;;;18.08;56.48
71601;BME280;59446;52.192;4.628;2022-10-10T08:47:48;101437.75;;;18.11;56.92
71601;BME280;59446;52.192;4.628;2022-10-10T08:52:59;101434.28;;;18.10;56.83
71601;BME280;59446;52.192;4.628;2022-10-10T08:55:34;101429.84;;;18.11;56.72
71601;BME280;59446;52.192;4.628;2022-10-10T09:01:04;101433.97;;;18.16;56.71
71601;BME280;59446;52.192;4.628;2022-10-10T09:03:46;101438.41;;;18.16;56.77
71601;BME280;59446;52.192;4.628;2022-10-10T09:14:25;101449.09;;;18.30;56.38
71601;BME280;59446;52.192;4.628;2022-10-10T09:20:01;101449.66;;;18.37;56.58
71601;BME280;59446;52.192;4.628;2022-10-10T09:22:30;101455.63;;;18.40;56.28
71601;BME280;59446;52.192;4.628;2022-10-10T09:27:32;101458.72;;;18.48;56.04
71601;BME280;59446;52.192;4.628;2022-10-10T09:30:19;101461.34;;;18.48;55.93
71601;BME280;59446;52.192;4.628;2022-10-10T09:32:51;101460.25;;;18.53;55.97
71601;BME280;59446;52.192;4.628;2022-10-10T09:35:27;101458.41;;;18.55;56.08
71601;BME280;59446;52.192;4.628;2022-10-10T09:38:34;101456.44;;;18.58;55.95
71601;BME280;59446;52.192;4.628;2022-10-10T09:41:06;101463.59;;;18.56;56.11
71601;BME280;59446;52.192;4.628;2022-10-10T09:43:34;101465.28;;;18.57;56.01
71601;BME280;59446;52.192;4.628;2022-10-10T09:46:00;101468.88;;;18.56;56.05
71601;BME280;59446;52.192;4.628;2022-10-10T09:48:40;101473.38;;;18.54;55.92
71601;BME280;59446;52.192;4.628;2022-10-10T09:51:11;101483.00;;;18.55;55.99
71601;BME280;59446;52.192;4.628;2022-10-10T09:53:37;101488.19;;;18.57;55.95
71601;BME280;59446;52.192;4.628;2022-10-10T09:56:04;101486.25;;;18.60;55.98
71601;BME280;59446;52.192;4.628;2022-10-10T09:58:41;101486.09;;;18.63;56.06
71601;BME280;59446;52.192;4.628;2022-10-10T10:01:20;101496.66;;;18.63;55.96
71601;BME280;59446;52.192;4.628;2022-10-10T10:04:15;101500.34;;;18.59;56.16
71601;BME280;59446;52.192;4.628;2022-10-10T10:06:49;101506.53;;;18.60;56.13
71601;BME280;59446;52.192;4.628;2022-10-10T10:09:20;101510.91;;;18.59;56.30
71601;BME280;59446;52.192;4.628;2022-10-10T10:11:53;101509.28;;;18.57;56.24
71601;BME280;59446;52.192;4.628;2022-10-10T10:14:28;101517.19;;;18.57;56.20
71601;BME280;59446;52.192;4.628;2022-10-10T10:17:14;101524.19;;;18.58;56.11
71601;BME280;59446;52.192;4.628;2022-10-10T10:19:42;101534.88;;;18.55;56.35
71601;BME280;59446;52.192;4.628;2022-10-10T10:22:31;101540.94;;;18.57;56.40
71601;BME280;59446;52.192;4.628;2022-10-10T10:25:26;101543.56;;;18.57;56.26
71601;BME280;59446;52.192;4.628;2022-10-10T10:27:43;101545.16;;;18.61;55.96
71601;BME280;59446;52.192;4.628;2022-10-10T10:30:23;101543.97;;;18.66;55.88
71601;BME280;59446;52.192;4.628;2022-10-10T10:35:26;101554.13;;;18.57;56.30
71601;BME280;59446;52.192;4.628;2022-10-10T10:38:15;101559.63;;;18.52;56.45
71601;BME280;59446;52.192;4.628;2022-10-10T10:41:09;101568.66;;;18.65;56.05
71601;BME280;59446;52.192;4.628;2022-10-10T10:44:13;101573.69;;;18.70;56.00
71601;BME280;59446;52.192;4.628;2022-10-10T10:50:19;101573.44;;;18.57;56.63
71601;BME280;59446;52.192;4.628;2022-10-10T10:59:15;101580.75;;;18.52;56.88
71601;BME280;59446;52.192;4.628;2022-10-10T11:07:39;101569.19;;;18.55;56.86
71601;BME280;59446;52.192;4.628;2022-10-10T11:10:18;101572.66;;;18.55;56.91
71601;BME280;59446;52.192;4.628;2022-10-10T11:15:51;101566.53;;;18.55;56.88
71601;BME280;59446;52.192;4.628;2022-10-10T11:18:29;101571.97;;;18.52;56.88
71601;BME280;59446;52.192;4.628;2022-10-10T11:21:03;101569.94;;;18.57;57.10
71601;BME280;59446;52.192;4.628;2022-10-10T11:23:34;101573.44;;;18.57;57.13
71601;BME280;59446;52.192;4.628;2022-10-10T11:26:06;101576.94;;;18.58;57.05
71601;BME280;59446;52.192;4.628;2022-10-10T11:28:55;101582.13;;;18.59;56.83
71601;BME280;59446;52.192;4.628;2022-10-10T11:31:36;101586.50;;;18.60;57.00
71601;BME280;59446;52.192;4.628;2022-10-10T11:34:09;101584.66;;;18.62;56.99
71601;BME280;59446;52.192;4.628;2022-10-10T11:36:40;101590.84;;;18.61;56.81
71601;BME280;59446;52.192;4.628;2022-10-10T11:39:19;101598.69;;;18.63;56.70
71601;BME280;59446;52.192;4.628;2022-10-10T11:41:53;101598.38;;;18.69;56.79
71601;BME280;59446;52.192;4.628;2022-10-10T11:44:33;101600.59;;;18.59;57.03
71601;BME280;59446;52.192;4.628;2022-10-10T11:47:36;101597.25;;;18.56;56.84
71601;BME280;59446;52.192;4.628;2022-10-10T11:55:26;101610.59;;;18.53;57.29
71601;BME280;59446;52.192;4.628;2022-10-10T12:00:49;101612.16;;;18.57;57.28
71601;BME280;59446;52.192;4.628;2022-10-10T12:03:16;101608.59;;;18.58;56.89
71601;BME280;59446;52.192;4.628;2022-10-10T12:05:49;101610.25;;;18.60;57.11
71601;BME280;59446;52.192;4.628;2022-10-10T12:08:24;101622.50;;;18.61;57.17
71601;BME280;59446;52.192;4.628;2022-10-10T12:11:05;101617.16;;;18.63;57.20
71601;BME280;59446;52.192;4.628;2022-10-10T12:13:43;101626.97;;;18.59;57.00
71601;BME280;59446;52.192;4.628;2022-10-10T12:16:13;101632.25;;;18.59;57.12
71601;BME280;59446;52.192;4.628;2022-10-10T12:18:51;101634.97;;;18.58;57.01
71601;BME280;59446;52.192;4.628;2022-10-10T12:21:20;101638.41;;;18.60;57.43
71601;BME280;59446;52.192;4.628;2022-10-10T12:23:49;101642.81;;;18.59;57.28
71601;BME280;59446;52.192;4.628;2022-10-10T12:26:23;101647.22;;;18.59;57.46
71601;BME280;59446;52.192;4.628;2022-10-10T12:29:02;101651.66;;;18.58;57.26
71601;BME280;59446;52.192;4.628;2022-10-10T12:31:38;101662.28;;;18.57;57.30
71601;BME280;59446;52.192;4.628;2022-10-10T12:34:14;101669.41;;;18.55;57.23
71601;BME280;59446;52.192;4.628;2022-10-10T12:36:54;101671.19;;;18.54;57.51
71601;BME280;59446;52.192;4.628;2022-10-10T12:39:32;101684.47;;;18.53;57.55
71601;BME280;59446;52.192;4.628;2022-10-10T12:41:57;101675.63;;;18.54;57.45
71601;BME280;59446;52.192;4.628;2022-10-10T12:50:17;101702.94;;;18.53;57.49
71601;BME280;59446;52.192;4.628;2022-10-10T12:52:36;101701.13;;;18.53;57.40
71601;BME280;59446;52.192;4.628;2022-10-10T12:55:31;101708.19;;;18.53;57.49
71601;BME280;59446;52.192;4.628;2022-10-10T12:58:07;101708.19;;;18.53;57.35
71601;BME280;59446;52.192;4.628;2022-10-10T13:00:39;101717.75;;;18.55;57.31
71601;BME280;59446;52.192;4.628;2022-10-10T13:03:26;101720.31;;;18.57;57.10
71601;BME280;59446;52.192;4.628;2022-10-10T13:05:53;101731.72;;;18.57;57.05
71601;BME280;59446;52.192;4.628;2022-10-10T13:08:24;101741.34;;;18.58;57.34
71601;BME280;59446;52.192;4.628;2022-10-10T13:11:11;101742.19;;;18.59;57.22
71601;BME280;59446;52.192;4.628;2022-10-10T13:13:57;101748.31;;;18.59;57.20
71601;BME280;59446;52.192;4.628;2022-10-10T13:16:25;101757.25;;;18.57;57.36
71601;BME280;59446;52.192;4.628;2022-10-10T13:18:56;101760.81;;;18.56;57.32
71601;BME280;59446;52.192;4.628;2022-10-10T13:21:35;101765.94;;;18.59;57.32
71601;BME280;59446;52.192;4.628;2022-10-10T13:24:10;101765.91;;;18.60;56.83
71601;BME280;59446;52.192;4.628;2022-10-10T13:26:49;101771.09;;;18.62;56.66
71601;BME280;59446;52.192;4.628;2022-10-10T13:29:21;101774.59;;;18.62;57.33
71601;BME280;59446;52.192;4.628;2022-10-10T13:31:53;101778.94;;;18.63;57.25
71601;BME280;59446;52.192;4.628;2022-10-10T13:34:25;101780.56;;;18.66;57.06
71601;BME280;59446;52.192;4.628;2022-10-10T13:36:55;101789.41;;;18.65;57.12
71601;BME280;59446;52.192;4.628;2022-10-10T13:39:25;101794.75;;;18.63;57.36
71601;BME280;59446;52.192;4.628;2022-10-10T13:41:57;101788.63;;;18.63;57.25
71601;BME280;59446;52.192;4.628;2022-10-10T13:47:47;101813.09;;;18.66;57.29
71601;BME280;59446;52.192;4.628;2022-10-10T14:01:46;101826.34;;;18.65;57.03
71601;BME280;59446;52.192;4.628;2022-10-10T14:04:18;101828.06;;;18.66;56.97
71601;BME280;59446;52.192;4.628;2022-10-10T14:07:12;101835.91;;;18.67;57.25
71601;BME280;59446;52.192;4.628;2022-10-10T14:09:51;101833.25;;;18.67;57.10
71601;BME280;59446;52.192;4.628;2022-10-10T14:12:39;101838.41;;;18.70;57.01
71601;BME280;59446;52.192;4.628;2022-10-10T14:18:32;101845.88;;;18.79;56.90
71601;BME280;59446;52.192;4.628;2022-10-10T14:20:57;101855.47;;;18.82;56.49
71601;BME280;59446;52.192;4.628;2022-10-10T14:23:23;101859.66;;;18.86;56.88
71601;BME280;59446;52.192;4.628;2022-10-10T14:25:51;101855.16;;;18.88;56.45
71601;BME280;59446;52.192;4.628;2022-10-10T14:28:24;101867.44;;;18.89;56.56
71601;BME280;59446;52.192;4.628;2022-10-10T14:30:50;101873.56;;;18.90;56.44
71601;BME280;59446;52.192;4.628;2022-10-10T14:33:17;101876.13;;;18.91;56.53
71601;BME280;59446;52.192;4.628;2022-10-10T14:35:44;101878.69;;;18.93;56.57
71601;BME280;59446;52.192;4.628;2022-10-10T14:38:10;101881.34;;;18.93;56.71
71601;BME280;59446;52.192;4.628;2022-10-10T14:40:36;101890.81;;;18.97;56.60
71601;BME280;59446;52.192;4.628;2022-10-10T14:43:01;101894.38;;;18.96;56.88